Medi Chiba — 3FUD5 — position and weather

sailwx.info

Track history (hours):
 
Tides and Currents Weather Stations Pressure Air Temp Water Temp Dewpoint Dewpoint Depression Visibility Wind Speed Wind Dir Waves Ship Positions

Medi Chiba

Last reported at 2017-Nov-03 00:38 UTC. Time now 2017-Nov-19 16:03 UTC.
Position N 35°49' E 014°50'.
Warning: this ship's position is 16 days out of date.

Length 229 m; draft 13.2 m.

Type: Cargo ship. MMSI: 356242000.

Date/timePositionNaut miles runAvg speedWind from/ knotsBaromVisibWave heightAir tempDewpointWater temp
2017-Nov-03 00:38N 35°49' E 014°50'211.8
2017-Nov-03 00:30N 35°50' E 014°48'4 7.4
2017-Nov-03 00:00N 35°52' E 014°45'1 1.1
2017-Nov-02 23:21N 35°52' E 014°46'0 0.1
2017-Nov-02 23:00N 35°52' E 014°46'0 0.0
2017-Nov-02 22:30N 35°52' E 014°46'0 0.0
2017-Nov-02 22:00N 35°52' E 014°46'0 0.0
2017-Nov-02 21:15N 35°52' E 014°46'0 0.1
2017-Nov-02 21:00N 35°52' E 014°46'0 0.0
2017-Nov-02 20:30N 35°52' E 014°46'0 0.1
2017-Nov-02 20:00N 35°52' E 014°46'0 0.0
2017-Nov-02 19:30N 35°52' E 014°46'0 0.1
2017-Nov-02 19:00N 35°52' E 014°46'0 0.1
2017-Nov-02 18:27N 35°52' E 014°45'0 0.0
2017-Nov-02 17:54N 35°52' E 014°45'0 0.0
2017-Nov-02 16:51N 35°52' E 014°45'0 0.1
2017-Nov-02 16:15N 35°52' E 014°45'0 0.2
2017-Nov-02 15:54N 35°52' E 014°45'0 0.1
2017-Nov-02 15:30N 35°52' E 014°45'0 0.1
2017-Nov-02 15:00N 35°52' E 014°45'0 0.0
2017-Nov-02 13:25N 35°52' E 014°45'1 1.9
2017-Nov-02 12:59N 35°52' E 014°44'2 3.6
2017-Nov-02 12:29N 35°53' E 014°43'4 8.3
2017-Nov-02 11:59N 35°56' E 014°40'510.5
2017-Nov-02 11:28N 36°00' E 014°35'511.2
2017-Nov-02 11:00N 36°03' E 014°30'510.9
2017-Nov-02 10:30N 36°07' E 014°25'5 9.1
2017-Nov-02 10:01N 36°10' E 014°21'510.0
2017-Nov-02 09:30N 36°13' E 014°16'611.2
2017-Nov-02 09:00N 36°17' E 014°11'5 9.7
2017-Nov-02 08:30N 36°20' E 014°07'5 9.2
2017-Nov-02 08:00N 36°24' E 014°02'5 9.2
2017-Nov-02 07:30N 36°27' E 013°58'5 9.2
2017-Nov-02 07:00N 36°30' E 013°54'2210.5
2017-Nov-02 04:57N 36°44' E 013°34'1112.3
2017-Nov-02 04:03N 36°52' E 013°24'112.3
2017-Nov-02 04:00N 36°53' E 013°24'  
2017-Oct-29 22:45N 35°60' W 005°16'312.8
2017-Oct-29 22:30N 35°60' W 005°20'611.9
2017-Oct-29 21:59N 35°58' W 005°27'10811.1
2017-Oct-29 12:15N 35°54' W 007°41'4511.0
2017-Oct-29 08:09N 35°56' W 008°36'211.2
2017-Oct-29 08:00N 35°56' W 008°38'611.3
2017-Oct-29 07:30N 35°57' W 008°45'611.2
2017-Oct-29 06:59N 35°58' W 008°52'511.3
2017-Oct-29 06:30N 35°59' W 008°59'611.4
2017-Oct-29 06:00N 35°60' W 009°06'611.5
2017-Oct-29 05:30N 36°00' W 009°13'611.6
2017-Oct-29 05:00N 36°01' W 009°20'611.2
2017-Oct-29 04:30N 36°02' W 009°27'511.0
2017-Oct-29 04:00N 36°03' W 009°33'10111.2
2017-Oct-28 19:00N 36°19' W 011°37'611.5
2017-Oct-28 18:30N 36°20' W 011°44'611.8
2017-Oct-28 18:00N 36°21' W 011°51'611.8
2017-Oct-28 17:30N 36°22' W 011°59'611.6
2017-Oct-28 17:00N 36°23' W 012°06'1111.8
2017-Oct-28 16:06N 36°25' W 012°19'3911.7
2017-Oct-28 12:45N 36°31' W 013°07'311.7
2017-Oct-28 12:29N 36°32' W 013°11'611.7
2017-Oct-28 12:00N 36°33' W 013°18'611.5
2017-Oct-28 11:30N 36°33' W 013°25'611.3
2017-Oct-28 10:58N 36°35' W 013°32'511.3
2017-Oct-28 10:30N 36°35' W 013°39'611.3
2017-Oct-28 09:56N 36°36' W 013°46'511.3
2017-Oct-28 09:30N 36°37' W 013°52'611.2
2017-Oct-28 09:00N 36°38' W 013°59'611.1
2017-Oct-28 08:30N 36°39' W 014°06'611.5
2017-Oct-28 08:00N 36°40' W 014°13'611.7
2017-Oct-28 07:30N 36°41' W 014°20'811.7
2017-Oct-28 06:49N 36°42' W 014°30'411.4
2017-Oct-28 06:28N 36°42' W 014°35'511.4
2017-Oct-28 06:00N 36°43' W 014°42'611.7
2017-Oct-28 05:29N 36°44' W 014°49'611.8
2017-Oct-28 05:00N 36°45' W 014°56'611.8
2017-Oct-28 04:30N 36°46' W 015°03'3011.9
2017-Oct-28 02:01N 36°51' W 015°40'111.9
2017-Oct-28 01:58N 36°51' W 015°41'611.9
2017-Oct-28 01:30N 36°52' W 015°47'1012.1
2017-Oct-28 00:41N 36°54' W 015°60'1312.1
2017-Oct-27 23:38N 36°56' W 016°15'112.0
2017-Oct-27 23:30N 36°56' W 016°17'1012.3
2017-Oct-27 22:43N 36°57' W 016°29'34811.3
2017-Oct-26 15:50N 37°29' W 023°44'512.0
2017-Oct-26 15:24N 37°29' W 023°51'512.1
2017-Oct-26 15:00N 37°29' W 023°57'611.8
2017-Oct-26 14:30N 37°29' W 024°04'611.6
2017-Oct-26 14:00N 37°29' W 024°12'611.6
2017-Oct-26 13:30N 37°30' W 024°19'611.6
2017-Oct-26 13:01N 37°30' W 024°26'611.4
2017-Oct-26 12:31N 37°31' W 024°33'611.2
2017-Oct-26 12:00N 37°31' W 024°40'611.6
2017-Oct-26 11:30N 37°32' W 024°48'611.8
2017-Oct-26 11:00N 37°32' W 024°55'611.9
2017-Oct-26 10:30N 37°32' W 025°03'611.9
2017-Oct-26 10:00N 37°32' W 025°10'612.5
2017-Oct-26 09:30N 37°32' W 025°18'713.3
2017-Oct-26 09:00N 37°31' W 025°26'713.1
2017-Oct-26 08:31N 37°31' W 025°35'612.3
2017-Oct-26 08:00N 37°31' W 025°42'611.8
2017-Oct-26 07:30N 37°31' W 025°50'611.8
2017-Oct-26 07:01N 37°30' W 025°57'611.8
2017-Oct-26 06:30N 37°30' W 026°05'611.9
2017-Oct-26 06:00N 37°30' W 026°12'611.7
2017-Oct-26 05:30N 37°30' W 026°20'612.3
2017-Oct-26 05:00N 37°29' W 026°27'612.0
2017-Oct-26 04:30N 37°29' W 026°35'611.7
2017-Oct-26 04:00N 37°28' W 026°42'611.6
2017-Oct-26 03:30N 37°28' W 026°50'612.0
2017-Oct-26 03:00N 37°28' W 026°57'611.7
2017-Oct-26 02:30N 37°28' W 027°04'611.4
2017-Oct-26 02:00N 37°28' W 027°12'611.3
2017-Oct-26 01:30N 37°28' W 027°19'611.5
2017-Oct-26 00:58N 37°29' W 027°27'711.6
2017-Oct-26 00:21N 37°28' W 027°36'411.1
2017-Oct-26 00:01N 37°28' W 027°40'611.0
2017-Oct-25 23:30N 37°28' W 027°48'611.7
2017-Oct-25 23:00N 37°29' W 027°55'612.1
2017-Oct-25 22:30N 37°29' W 028°02'611.9
2017-Oct-25 22:00N 37°29' W 028°10'611.4
2017-Oct-25 21:30N 37°29' W 028°17'611.2
2017-Oct-25 21:00N 37°29' W 028°24'611.5
2017-Oct-25 20:30N 37°29' W 028°31'611.9
2017-Oct-25 20:00N 37°29' W 028°39'612.0
2017-Oct-25 19:30N 37°29' W 028°46'612.0
2017-Oct-25 19:00N 37°29' W 028°54'611.9
2017-Oct-25 18:30N 37°29' W 029°02'611.9
2017-Oct-25 18:00N 37°29' W 029°09'611.9
2017-Oct-25 17:30N 37°29' W 029°17'611.5
2017-Oct-25 17:01N 37°29' W 029°24'611.4
2017-Oct-25 16:31N 37°29' W 029°31'611.8
2017-Oct-25 16:00N 37°29' W 029°38'611.9
2017-Oct-25 15:30N 37°30' W 029°46'712.0
2017-Oct-25 14:57N 37°30' W 029°54'511.7
2017-Oct-25 14:30N 37°30' W 030°01'  
Track history (hours):
 
Tides and Currents Weather Stations Pressure Air Temp Water Temp Dewpoint Dewpoint Depression Visibility Wind Speed Wind Dir Waves Ship Positions

Medi Chiba

Last reported at 2017-Nov-03 00:38 UTC. Time now 2017-Nov-19 16:03 UTC.
Position N 35°49' E 014°50'.
Warning: this ship's position is 16 days out of date.

Length 229 m; draft 13.2 m.

Type: Cargo ship. MMSI: 356242000.

Date/timePositionNaut miles runAvg speedWind from/ knotsBaromVisibWave heightAir tempDewpointWater temp
2017-Nov-03 00:38N 35°49' E 014°50'211.8
2017-Nov-03 00:30N 35°50' E 014°48'4 7.4
2017-Nov-03 00:00N 35°52' E 014°45'1 1.1
2017-Nov-02 23:21N 35°52' E 014°46'0 0.1
2017-Nov-02 23:00N 35°52' E 014°46'0 0.0
2017-Nov-02 22:30N 35°52' E 014°46'0 0.0
2017-Nov-02 22:00N 35°52' E 014°46'0 0.0
2017-Nov-02 21:15N 35°52' E 014°46'0 0.1
2017-Nov-02 21:00N 35°52' E 014°46'0 0.0
2017-Nov-02 20:30N 35°52' E 014°46'0 0.1
2017-Nov-02 20:00N 35°52' E 014°46'0 0.0
2017-Nov-02 19:30N 35°52' E 014°46'0 0.1
2017-Nov-02 19:00N 35°52' E 014°46'0 0.1
2017-Nov-02 18:27N 35°52' E 014°45'0 0.0
2017-Nov-02 17:54N 35°52' E 014°45'0 0.0
2017-Nov-02 16:51N 35°52' E 014°45'0 0.1
2017-Nov-02 16:15N 35°52' E 014°45'0 0.2
2017-Nov-02 15:54N 35°52' E 014°45'0 0.1
2017-Nov-02 15:30N 35°52' E 014°45'0 0.1
2017-Nov-02 15:00N 35°52' E 014°45'0 0.0
2017-Nov-02 13:25N 35°52' E 014°45'1 1.9
2017-Nov-02 12:59N 35°52' E 014°44'2 3.6
2017-Nov-02 12:29N 35°53' E 014°43'4 8.3
2017-Nov-02 11:59N 35°56' E 014°40'510.5
2017-Nov-02 11:28N 36°00' E 014°35'511.2
2017-Nov-02 11:00N 36°03' E 014°30'510.9
2017-Nov-02 10:30N 36°07' E 014°25'5 9.1
2017-Nov-02 10:01N 36°10' E 014°21'510.0
2017-Nov-02 09:30N 36°13' E 014°16'611.2
2017-Nov-02 09:00N 36°17' E 014°11'5 9.7
2017-Nov-02 08:30N 36°20' E 014°07'5 9.2
2017-Nov-02 08:00N 36°24' E 014°02'5 9.2
2017-Nov-02 07:30N 36°27' E 013°58'5 9.2
2017-Nov-02 07:00N 36°30' E 013°54'2210.5
2017-Nov-02 04:57N 36°44' E 013°34'1112.3
2017-Nov-02 04:03N 36°52' E 013°24'112.3
2017-Nov-02 04:00N 36°53' E 013°24'  
2017-Oct-29 22:45N 35°60' W 005°16'312.8
2017-Oct-29 22:30N 35°60' W 005°20'611.9
2017-Oct-29 21:59N 35°58' W 005°27'10811.1
2017-Oct-29 12:15N 35°54' W 007°41'4511.0
2017-Oct-29 08:09N 35°56' W 008°36'211.2
2017-Oct-29 08:00N 35°56' W 008°38'611.3
2017-Oct-29 07:30N 35°57' W 008°45'611.2
2017-Oct-29 06:59N 35°58' W 008°52'511.3
2017-Oct-29 06:30N 35°59' W 008°59'611.4
2017-Oct-29 06:00N 35°60' W 009°06'611.5
2017-Oct-29 05:30N 36°00' W 009°13'611.6
2017-Oct-29 05:00N 36°01' W 009°20'611.2
2017-Oct-29 04:30N 36°02' W 009°27'511.0
2017-Oct-29 04:00N 36°03' W 009°33'10111.2
2017-Oct-28 19:00N 36°19' W 011°37'611.5
2017-Oct-28 18:30N 36°20' W 011°44'611.8
2017-Oct-28 18:00N 36°21' W 011°51'611.8
2017-Oct-28 17:30N 36°22' W 011°59'611.6
2017-Oct-28 17:00N 36°23' W 012°06'1111.8
2017-Oct-28 16:06N 36°25' W 012°19'3911.7
2017-Oct-28 12:45N 36°31' W 013°07'311.7
2017-Oct-28 12:29N 36°32' W 013°11'611.7
2017-Oct-28 12:00N 36°33' W 013°18'611.5
2017-Oct-28 11:30N 36°33' W 013°25'611.3
2017-Oct-28 10:58N 36°35' W 013°32'511.3
2017-Oct-28 10:30N 36°35' W 013°39'611.3
2017-Oct-28 09:56N 36°36' W 013°46'511.3
2017-Oct-28 09:30N 36°37' W 013°52'611.2
2017-Oct-28 09:00N 36°38' W 013°59'611.1
2017-Oct-28 08:30N 36°39' W 014°06'611.5
2017-Oct-28 08:00N 36°40' W 014°13'611.7
2017-Oct-28 07:30N 36°41' W 014°20'811.7
2017-Oct-28 06:49N 36°42' W 014°30'411.4
2017-Oct-28 06:28N 36°42' W 014°35'511.4
2017-Oct-28 06:00N 36°43' W 014°42'611.7
2017-Oct-28 05:29N 36°44' W 014°49'611.8
2017-Oct-28 05:00N 36°45' W 014°56'611.8
2017-Oct-28 04:30N 36°46' W 015°03'3011.9
2017-Oct-28 02:01N 36°51' W 015°40'111.9
2017-Oct-28 01:58N 36°51' W 015°41'611.9
2017-Oct-28 01:30N 36°52' W 015°47'1012.1
2017-Oct-28 00:41N 36°54' W 015°60'1312.1
2017-Oct-27 23:38N 36°56' W 016°15'112.0
2017-Oct-27 23:30N 36°56' W 016°17'1012.3
2017-Oct-27 22:43N 36°57' W 016°29'34811.3
2017-Oct-26 15:50N 37°29' W 023°44'512.0
2017-Oct-26 15:24N 37°29' W 023°51'512.1
2017-Oct-26 15:00N 37°29' W 023°57'611.8
2017-Oct-26 14:30N 37°29' W 024°04'611.6
2017-Oct-26 14:00N 37°29' W 024°12'611.6
2017-Oct-26 13:30N 37°30' W 024°19'611.6
2017-Oct-26 13:01N 37°30' W 024°26'611.4
2017-Oct-26 12:31N 37°31' W 024°33'611.2
2017-Oct-26 12:00N 37°31' W 024°40'611.6
2017-Oct-26 11:30N 37°32' W 024°48'611.8
2017-Oct-26 11:00N 37°32' W 024°55'611.9
2017-Oct-26 10:30N 37°32' W 025°03'611.9
2017-Oct-26 10:00N 37°32' W 025°10'612.5
2017-Oct-26 09:30N 37°32' W 025°18'713.3
2017-Oct-26 09:00N 37°31' W 025°26'713.1
2017-Oct-26 08:31N 37°31' W 025°35'612.3
2017-Oct-26 08:00N 37°31' W 025°42'611.8
2017-Oct-26 07:30N 37°31' W 025°50'611.8
2017-Oct-26 07:01N 37°30' W 025°57'611.8
2017-Oct-26 06:30N 37°30' W 026°05'611.9
2017-Oct-26 06:00N 37°30' W 026°12'611.7
2017-Oct-26 05:30N 37°30' W 026°20'612.3
2017-Oct-26 05:00N 37°29' W 026°27'612.0
2017-Oct-26 04:30N 37°29' W 026°35'611.7
2017-Oct-26 04:00N 37°28' W 026°42'611.6
2017-Oct-26 03:30N 37°28' W 026°50'612.0
2017-Oct-26 03:00N 37°28' W 026°57'611.7
2017-Oct-26 02:30N 37°28' W 027°04'611.4
2017-Oct-26 02:00N 37°28' W 027°12'611.3
2017-Oct-26 01:30N 37°28' W 027°19'611.5
2017-Oct-26 00:58N 37°29' W 027°27'711.6
2017-Oct-26 00:21N 37°28' W 027°36'411.1
2017-Oct-26 00:01N 37°28' W 027°40'611.0
2017-Oct-25 23:30N 37°28' W 027°48'611.7
2017-Oct-25 23:00N 37°29' W 027°55'612.1
2017-Oct-25 22:30N 37°29' W 028°02'611.9
2017-Oct-25 22:00N 37°29' W 028°10'611.4
2017-Oct-25 21:30N 37°29' W 028°17'611.2
2017-Oct-25 21:00N 37°29' W 028°24'611.5
2017-Oct-25 20:30N 37°29' W 028°31'611.9
2017-Oct-25 20:00N 37°29' W 028°39'612.0
2017-Oct-25 19:30N 37°29' W 028°46'612.0
2017-Oct-25 19:00N 37°29' W 028°54'611.9
2017-Oct-25 18:30N 37°29' W 029°02'611.9
2017-Oct-25 18:00N 37°29' W 029°09'611.9
2017-Oct-25 17:30N 37°29' W 029°17'611.5
2017-Oct-25 17:01N 37°29' W 029°24'611.4
2017-Oct-25 16:31N 37°29' W 029°31'611.8
2017-Oct-25 16:00N 37°29' W 029°38'611.9
2017-Oct-25 15:30N 37°30' W 029°46'712.0
2017-Oct-25 14:57N 37°30' W 029°54'511.7
2017-Oct-25 14:30N 37°30' W 030°01'  

Dump ship's entire track history